sensor_id;sensor_type;location;lat;lon;timestamp;P1;durP1;ratioP1;P2;durP2;ratioP2
37781;SDS011;23621;50.878;4.584;2023-06-19T00:01:56;5.97;;;4.20;;
37781;SDS011;23621;50.878;4.584;2023-06-19T00:04:43;5.00;;;4.20;;
37781;SDS011;23621;50.878;4.584;2023-06-19T00:07:30;4.57;;;4.07;;
37781;SDS011;23621;50.878;4.584;2023-06-19T00:10:18;4.25;;;3.70;;
37781;SDS011;23621;50.878;4.584;2023-06-19T00:13:05;4.53;;;4.07;;
37781;SDS011;23621;50.878;4.584;2023-06-19T00:15:52;5.50;;;4.28;;
37781;SDS011;23621;50.878;4.584;2023-06-19T00:18:40;4.63;;;3.72;;
37781;SDS011;23621;50.878;4.584;2023-06-19T00:21:27;4.75;;;4.00;;
37781;SDS011;23621;50.878;4.584;2023-06-19T00:24:14;5.68;;;3.80;;
37781;SDS011;23621;50.878;4.584;2023-06-19T00:27:02;4.38;;;3.97;;
37781;SDS011;23621;50.878;4.584;2023-06-19T00:29:52;4.13;;;3.72;;
37781;SDS011;23621;50.878;4.584;2023-06-19T00:32:40;4.40;;;4.00;;
37781;SDS011;23621;50.878;4.584;2023-06-19T00:35:33;6.60;;;4.22;;
37781;SDS011;23621;50.878;4.584;2023-06-19T00:38:21;5.75;;;3.67;;
37781;SDS011;23621;50.878;4.584;2023-06-19T00:41:08;8.18;;;3.53;;
37781;SDS011;23621;50.878;4.584;2023-06-19T00:43:55;4.03;;;3.40;;
37781;SDS011;23621;50.878;4.584;2023-06-19T00:46:43;4.15;;;3.67;;
37781;SDS011;23621;50.878;4.584;2023-06-19T00:49:31;6.88;;;4.10;;
37781;SDS011;23621;50.878;4.584;2023-06-19T00:52:18;4.80;;;3.80;;
37781;SDS011;23621;50.878;4.584;2023-06-19T00:55:06;4.60;;;3.10;;
37781;SDS011;23621;50.878;4.584;2023-06-19T00:57:54;4.43;;;3.30;;
37781;SDS011;23621;50.878;4.584;2023-06-19T01:00:41;3.72;;;3.35;;
37781;SDS011;23621;50.878;4.584;2023-06-19T01:03:41;3.80;;;3.15;;
37781;SDS011;23621;50.878;4.584;2023-06-19T01:06:31;4.10;;;2.75;;
37781;SDS011;23621;50.878;4.584;2023-06-19T01:09:29;3.45;;;3.15;;
37781;SDS011;23621;50.878;4.584;2023-06-19T01:12:30;3.78;;;2.97;;
37781;SDS011;23621;50.878;4.584;2023-06-19T01:15:24;3.75;;;3.22;;
37781;SDS011;23621;50.878;4.584;2023-06-19T01:18:12;3.97;;;3.58;;
37781;SDS011;23621;50.878;4.584;2023-06-19T01:21:10;5.38;;;3.65;;
37781;SDS011;23621;50.878;4.584;2023-06-19T01:24:05;3.20;;;2.90;;
37781;SDS011;23621;50.878;4.584;2023-06-19T01:26:52;5.55;;;3.20;;
37781;SDS011;23621;50.878;4.584;2023-06-19T01:29:39;3.85;;;3.47;;
37781;SDS011;23621;50.878;4.584;2023-06-19T01:32:35;5.05;;;3.45;;
37781;SDS011;23621;50.878;4.584;2023-06-19T01:35:34;4.88;;;3.60;;
37781;SDS011;23621;50.878;4.584;2023-06-19T01:38:24;3.85;;;3.00;;
37781;SDS011;23621;50.878;4.584;2023-06-19T01:41:15;4.05;;;3.17;;
37781;SDS011;23621;50.878;4.584;2023-06-19T01:44:04;4.70;;;3.17;;
37781;SDS011;23621;50.878;4.584;2023-06-19T01:46:52;6.28;;;3.70;;
37781;SDS011;23621;50.878;4.584;2023-06-19T01:49:39;3.20;;;2.90;;
37781;SDS011;23621;50.878;4.584;2023-06-19T01:52:27;4.30;;;3.55;;
37781;SDS011;23621;50.878;4.584;2023-06-19T01:55:14;4.07;;;3.67;;
37781;SDS011;23621;50.878;4.584;2023-06-19T01:58:02;3.33;;;3.03;;
37781;SDS011;23621;50.878;4.584;2023-06-19T02:00:49;4.32;;;3.08;;
37781;SDS011;23621;50.878;4.584;2023-06-19T02:03:36;4.22;;;3.38;;
37781;SDS011;23621;50.878;4.584;2023-06-19T02:06:24;4.60;;;3.50;;
37781;SDS011;23621;50.878;4.584;2023-06-19T02:09:11;4.55;;;3.40;;
37781;SDS011;23621;50.878;4.584;2023-06-19T02:11:58;4.03;;;3.40;;
37781;SDS011;23621;50.878;4.584;2023-06-19T02:14:45;4.88;;;3.45;;
37781;SDS011;23621;50.878;4.584;2023-06-19T02:17:33;4.60;;;3.65;;
37781;SDS011;23621;50.878;4.584;2023-06-19T02:20:23;3.78;;;3.47;;
37781;SDS011;23621;50.878;4.584;2023-06-19T02:23:13;4.20;;;3.80;;
37781;SDS011;23621;50.878;4.584;2023-06-19T02:26:01;4.10;;;3.70;;
37781;SDS011;23621;50.878;4.584;2023-06-19T02:28:48;4.13;;;3.83;;
37781;SDS011;23621;50.878;4.584;2023-06-19T02:31:35;4.07;;;3.75;;
37781;SDS011;23621;50.878;4.584;2023-06-19T02:34:22;3.47;;;3.17;;
37781;SDS011;23621;50.878;4.584;2023-06-19T02:37:10;4.10;;;3.67;;
37781;SDS011;23621;50.878;4.584;2023-06-19T02:39:57;5.00;;;3.58;;
37781;SDS011;23621;50.878;4.584;2023-06-19T02:42:45;4.88;;;3.53;;
37781;SDS011;23621;50.878;4.584;2023-06-19T02:45:32;5.30;;;3.45;;
37781;SDS011;23621;50.878;4.584;2023-06-19T02:48:19;4.78;;;3.80;;
37781;SDS011;23621;50.878;4.584;2023-06-19T02:51:06;4.10;;;3.33;;
37781;SDS011;23621;50.878;4.584;2023-06-19T02:53:54;5.85;;;4.00;;
37781;SDS011;23621;50.878;4.584;2023-06-19T02:56:41;5.18;;;3.58;;
37781;SDS011;23621;50.878;4.584;2023-06-19T02:59:28;3.65;;;3.35;;
37781;SDS011;23621;50.878;4.584;2023-06-19T03:02:15;3.70;;;3.17;;
37781;SDS011;23621;50.878;4.584;2023-06-19T03:05:03;6.30;;;4.18;;
37781;SDS011;23621;50.878;4.584;2023-06-19T03:07:50;4.43;;;4.03;;
37781;SDS011;23621;50.878;4.584;2023-06-19T03:10:38;4.45;;;3.95;;
37781;SDS011;23621;50.878;4.584;2023-06-19T03:13:25;5.03;;;3.88;;
37781;SDS011;23621;50.878;4.584;2023-06-19T03:16:12;4.03;;;3.70;;
37781;SDS011;23621;50.878;4.584;2023-06-19T03:19:01;4.35;;;3.95;;
37781;SDS011;23621;50.878;4.584;2023-06-19T03:21:49;4.72;;;4.13;;
37781;SDS011;23621;50.878;4.584;2023-06-19T03:24:36;4.50;;;4.10;;
37781;SDS011;23621;50.878;4.584;2023-06-19T03:27:23;4.95;;;4.40;;
37781;SDS011;23621;50.878;4.584;2023-06-19T03:30:13;4.70;;;4.18;;
37781;SDS011;23621;50.878;4.584;2023-06-19T03:33:00;5.15;;;4.18;;
37781;SDS011;23621;50.878;4.584;2023-06-19T03:35:47;5.50;;;4.60;;
37781;SDS011;23621;50.878;4.584;2023-06-19T03:38:35;5.70;;;5.15;;
37781;SDS011;23621;50.878;4.584;2023-06-19T03:41:22;5.95;;;5.40;;
37781;SDS011;23621;50.878;4.584;2023-06-19T03:44:09;6.60;;;6.00;;
37781;SDS011;23621;50.878;4.584;2023-06-19T03:46:56;7.65;;;6.78;;
37781;SDS011;23621;50.878;4.584;2023-06-19T03:49:43;6.90;;;6.30;;
37781;SDS011;23621;50.878;4.584;2023-06-19T03:52:30;6.05;;;5.55;;
37781;SDS011;23621;50.878;4.584;2023-06-19T03:55:18;6.20;;;5.60;;
37781;SDS011;23621;50.878;4.584;2023-06-19T03:58:05;6.13;;;5.45;;
37781;SDS011;23621;50.878;4.584;2023-06-19T04:00:52;6.68;;;6.07;;
37781;SDS011;23621;50.878;4.584;2023-06-19T04:03:39;6.93;;;6.22;;
37781;SDS011;23621;50.878;4.584;2023-06-19T04:06:27;7.57;;;6.78;;
37781;SDS011;23621;50.878;4.584;2023-06-19T04:09:15;9.40;;;8.57;;
37781;SDS011;23621;50.878;4.584;2023-06-19T04:12:02;11.70;;;10.52;;
37781;SDS011;23621;50.878;4.584;2023-06-19T04:14:50;11.02;;;9.93;;
37781;SDS011;23621;50.878;4.584;2023-06-19T04:17:37;10.50;;;9.48;;
37781;SDS011;23621;50.878;4.584;2023-06-19T04:20:24;10.93;;;9.82;;
37781;SDS011;23621;50.878;4.584;2023-06-19T04:23:12;11.55;;;10.35;;
37781;SDS011;23621;50.878;4.584;2023-06-19T04:26:00;11.13;;;9.90;;
37781;SDS011;23621;50.878;4.584;2023-06-19T04:28:47;11.77;;;10.50;;
37781;SDS011;23621;50.878;4.584;2023-06-19T04:31:34;11.20;;;10.10;;
37781;SDS011;23621;50.878;4.584;2023-06-19T04:34:28;12.57;;;9.73;;
37781;SDS011;23621;50.878;4.584;2023-06-19T04:37:16;9.63;;;8.63;;
37781;SDS011;23621;50.878;4.584;2023-06-19T04:40:06;8.93;;;8.13;;
37781;SDS011;23621;50.878;4.584;2023-06-19T04:42:54;8.48;;;7.65;;
37781;SDS011;23621;50.878;4.584;2023-06-19T04:45:42;7.97;;;7.22;;
37781;SDS011;23621;50.878;4.584;2023-06-19T04:48:29;8.85;;;7.95;;
37781;SDS011;23621;50.878;4.584;2023-06-19T04:51:17;9.10;;;8.02;;
37781;SDS011;23621;50.878;4.584;2023-06-19T04:54:07;8.52;;;7.70;;
37781;SDS011;23621;50.878;4.584;2023-06-19T04:56:54;9.10;;;8.23;;
37781;SDS011;23621;50.878;4.584;2023-06-19T04:59:42;9.13;;;8.13;;
37781;SDS011;23621;50.878;4.584;2023-06-19T05:02:31;9.77;;;8.75;;
37781;SDS011;23621;50.878;4.584;2023-06-19T05:05:18;9.20;;;8.30;;
37781;SDS011;23621;50.878;4.584;2023-06-19T05:08:13;9.00;;;7.72;;
37781;SDS011;23621;50.878;4.584;2023-06-19T05:11:00;8.65;;;7.75;;
37781;SDS011;23621;50.878;4.584;2023-06-19T05:13:47;9.82;;;8.10;;
37781;SDS011;23621;50.878;4.584;2023-06-19T05:16:34;9.20;;;8.27;;
37781;SDS011;23621;50.878;4.584;2023-06-19T05:19:23;9.95;;;8.35;;
37781;SDS011;23621;50.878;4.584;2023-06-19T05:22:10;10.35;;;9.27;;
37781;SDS011;23621;50.878;4.584;2023-06-19T05:24:57;10.70;;;8.15;;
37781;SDS011;23621;50.878;4.584;2023-06-19T05:27:44;9.38;;;8.48;;
37781;SDS011;23621;50.878;4.584;2023-06-19T05:30:32;10.13;;;9.23;;
37781;SDS011;23621;50.878;4.584;2023-06-19T05:33:19;9.50;;;8.45;;
37781;SDS011;23621;50.878;4.584;2023-06-19T05:36:06;9.50;;;8.55;;
37781;SDS011;23621;50.878;4.584;2023-06-19T05:38:53;9.93;;;8.63;;
37781;SDS011;23621;50.878;4.584;2023-06-19T05:41:40;8.93;;;7.70;;
37781;SDS011;23621;50.878;4.584;2023-06-19T05:44:28;9.02;;;8.13;;
37781;SDS011;23621;50.878;4.584;2023-06-19T05:47:15;9.23;;;7.53;;
37781;SDS011;23621;50.878;4.584;2023-06-19T05:50:03;9.02;;;7.57;;
37781;SDS011;23621;50.878;4.584;2023-06-19T05:52:51;9.70;;;8.10;;
37781;SDS011;23621;50.878;4.584;2023-06-19T05:55:38;8.93;;;7.75;;
37781;SDS011;23621;50.878;4.584;2023-06-19T05:58:25;10.43;;;7.78;;
37781;SDS011;23621;50.878;4.584;2023-06-19T06:01:13;11.35;;;8.00;;
37781;SDS011;23621;50.878;4.584;2023-06-19T06:04:09;9.73;;;8.32;;
37781;SDS011;23621;50.878;4.584;2023-06-19T06:06:57;9.95;;;8.23;;
37781;SDS011;23621;50.878;4.584;2023-06-19T06:09:44;8.98;;;8.07;;
37781;SDS011;23621;50.878;4.584;2023-06-19T06:12:35;9.68;;;8.68;;
37781;SDS011;23621;50.878;4.584;2023-06-19T06:15:22;8.65;;;7.65;;
37781;SDS011;23621;50.878;4.584;2023-06-19T06:18:09;8.45;;;7.65;;
37781;SDS011;23621;50.878;4.584;2023-06-19T06:20:56;8.68;;;7.88;;
37781;SDS011;23621;50.878;4.584;2023-06-19T06:23:45;8.35;;;7.53;;
37781;SDS011;23621;50.878;4.584;2023-06-19T06:26:34;8.10;;;7.32;;
37781;SDS011;23621;50.878;4.584;2023-06-19T06:29:22;8.98;;;7.90;;
37781;SDS011;23621;50.878;4.584;2023-06-19T06:32:09;9.07;;;7.93;;
37781;SDS011;23621;50.878;4.584;2023-06-19T06:34:57;9.00;;;8.10;;
37781;SDS011;23621;50.878;4.584;2023-06-19T06:37:45;9.35;;;8.40;;
37781;SDS011;23621;50.878;4.584;2023-06-19T06:40:32;9.52;;;8.52;;
37781;SDS011;23621;50.878;4.584;2023-06-19T06:43:20;10.50;;;9.40;;
37781;SDS011;23621;50.878;4.584;2023-06-19T06:46:07;10.25;;;7.95;;
37781;SDS011;23621;50.878;4.584;2023-06-19T06:48:55;10.52;;;8.93;;
37781;SDS011;23621;50.878;4.584;2023-06-19T06:51:42;10.50;;;8.27;;
37781;SDS011;23621;50.878;4.584;2023-06-19T06:54:29;9.90;;;8.80;;
37781;SDS011;23621;50.878;4.584;2023-06-19T06:57:17;9.75;;;8.65;;
37781;SDS011;23621;50.878;4.584;2023-06-19T07:00:04;11.95;;;9.50;;
37781;SDS011;23621;50.878;4.584;2023-06-19T07:02:53;13.98;;;9.93;;
37781;SDS011;23621;50.878;4.584;2023-06-19T07:05:42;11.90;;;10.70;;
37781;SDS011;23621;50.878;4.584;2023-06-19T07:08:30;10.40;;;9.38;;
37781;SDS011;23621;50.878;4.584;2023-06-19T07:11:17;11.73;;;10.57;;
37781;SDS011;23621;50.878;4.584;2023-06-19T07:14:04;12.15;;;10.23;;
37781;SDS011;23621;50.878;4.584;2023-06-19T07:16:51;10.63;;;9.63;;
37781;SDS011;23621;50.878;4.584;2023-06-19T07:19:38;12.52;;;9.65;;
37781;SDS011;23621;50.878;4.584;2023-06-19T07:22:26;10.85;;;9.75;;
37781;SDS011;23621;50.878;4.584;2023-06-19T07:25:13;9.95;;;8.95;;
37781;SDS011;23621;50.878;4.584;2023-06-19T07:28:01;10.77;;;9.63;;
37781;SDS011;23621;50.878;4.584;2023-06-19T07:30:50;10.02;;;8.40;;
37781;SDS011;23621;50.878;4.584;2023-06-19T07:33:38;9.57;;;8.68;;
37781;SDS011;23621;50.878;4.584;2023-06-19T07:36:26;10.05;;;8.55;;
37781;SDS011;23621;50.878;4.584;2023-06-19T07:39:13;11.80;;;8.88;;
37781;SDS011;23621;50.878;4.584;2023-06-19T07:42:01;11.48;;;8.35;;
37781;SDS011;23621;50.878;4.584;2023-06-19T07:44:48;9.70;;;8.80;;
37781;SDS011;23621;50.878;4.584;2023-06-19T07:47:35;10.40;;;8.98;;
37781;SDS011;23621;50.878;4.584;2023-06-19T07:50:23;11.40;;;8.95;;
37781;SDS011;23621;50.878;4.584;2023-06-19T07:53:13;12.60;;;7.78;;
37781;SDS011;23621;50.878;4.584;2023-06-19T07:56:00;8.63;;;7.40;;
37781;SDS011;23621;50.878;4.584;2023-06-19T07:58:47;9.27;;;8.23;;
37781;SDS011;23621;50.878;4.584;2023-06-19T08:01:35;9.65;;;8.30;;
37781;SDS011;23621;50.878;4.584;2023-06-19T08:04:22;11.73;;;8.40;;
37781;SDS011;23621;50.878;4.584;2023-06-19T08:07:09;9.13;;;8.07;;
37781;SDS011;23621;50.878;4.584;2023-06-19T08:09:56;11.15;;;7.93;;
37781;SDS011;23621;50.878;4.584;2023-06-19T08:12:59;9.73;;;8.55;;
37781;SDS011;23621;50.878;4.584;2023-06-19T08:15:46;9.60;;;8.57;;
37781;SDS011;23621;50.878;4.584;2023-06-19T08:18:33;8.40;;;7.60;;
37781;SDS011;23621;50.878;4.584;2023-06-19T08:21:21;12.70;;;7.47;;
37781;SDS011;23621;50.878;4.584;2023-06-19T08:24:08;7.80;;;7.07;;
37781;SDS011;23621;50.878;4.584;2023-06-19T08:26:55;9.52;;;8.38;;
37781;SDS011;23621;50.878;4.584;2023-06-19T08:29:42;9.45;;;7.95;;
37781;SDS011;23621;50.878;4.584;2023-06-19T08:32:30;9.60;;;8.10;;
37781;SDS011;23621;50.878;4.584;2023-06-19T08:35:17;8.90;;;7.93;;
37781;SDS011;23621;50.878;4.584;2023-06-19T08:38:04;10.18;;;7.45;;
37781;SDS011;23621;50.878;4.584;2023-06-19T08:40:51;14.27;;;8.20;;
37781;SDS011;23621;50.878;4.584;2023-06-19T08:43:39;7.82;;;7.03;;
37781;SDS011;23621;50.878;4.584;2023-06-19T08:46:27;18.48;;;7.97;;
37781;SDS011;23621;50.878;4.584;2023-06-19T08:49:15;8.48;;;7.43;;
37781;SDS011;23621;50.878;4.584;2023-06-19T08:52:02;7.82;;;7.10;;
37781;SDS011;23621;50.878;4.584;2023-06-19T08:54:50;9.60;;;7.32;;
37781;SDS011;23621;50.878;4.584;2023-06-19T08:57:38;8.93;;;7.35;;
37781;SDS011;23621;50.878;4.584;2023-06-19T09:00:26;9.43;;;7.82;;
37781;SDS011;23621;50.878;4.584;2023-06-19T09:03:19;8.88;;;6.88;;
37781;SDS011;23621;50.878;4.584;2023-06-19T09:06:10;9.20;;;6.97;;
37781;SDS011;23621;50.878;4.584;2023-06-19T09:08:58;9.57;;;7.30;;
37781;SDS011;23621;50.878;4.584;2023-06-19T09:12:02;7.93;;;7.13;;
37781;SDS011;23621;50.878;4.584;2023-06-19T09:14:54;10.02;;;7.60;;
37781;SDS011;23621;50.878;4.584;2023-06-19T09:17:41;8.52;;;7.18;;
37781;SDS011;23621;50.878;4.584;2023-06-19T09:20:29;8.98;;;7.75;;
37781;SDS011;23621;50.878;4.584;2023-06-19T09:23:17;9.02;;;7.40;;
37781;SDS011;23621;50.878;4.584;2023-06-19T09:26:04;8.98;;;6.85;;
37781;SDS011;23621;50.878;4.584;2023-06-19T09:28:51;8.40;;;6.47;;
37781;SDS011;23621;50.878;4.584;2023-06-19T09:31:38;8.60;;;7.32;;
37781;SDS011;23621;50.878;4.584;2023-06-19T09:34:27;11.10;;;7.28;;
37781;SDS011;23621;50.878;4.584;2023-06-19T09:37:15;7.75;;;7.05;;
37781;SDS011;23621;50.878;4.584;2023-06-19T09:40:03;8.60;;;7.70;;
37781;SDS011;23621;50.878;4.584;2023-06-19T09:43:00;8.52;;;7.50;;
37781;SDS011;23621;50.878;4.584;2023-06-19T09:45:49;10.20;;;7.95;;
37781;SDS011;23621;50.878;4.584;2023-06-19T09:48:44;8.77;;;7.88;;
37781;SDS011;23621;50.878;4.584;2023-06-19T09:51:35;10.10;;;9.18;;
37781;SDS011;23621;50.878;4.584;2023-06-19T09:54:24;9.18;;;8.27;;
37781;SDS011;23621;50.878;4.584;2023-06-19T09:57:12;8.82;;;7.93;;
37781;SDS011;23621;50.878;4.584;2023-06-19T10:00:00;7.93;;;7.13;;
37781;SDS011;23621;50.878;4.584;2023-06-19T10:02:58;8.88;;;7.60;;
37781;SDS011;23621;50.878;4.584;2023-06-19T10:05:47;9.25;;;8.27;;
37781;SDS011;23621;50.878;4.584;2023-06-19T10:08:45;10.60;;;8.82;;
37781;SDS011;23621;50.878;4.584;2023-06-19T10:11:45;9.60;;;8.40;;
37781;SDS011;23621;50.878;4.584;2023-06-19T10:14:34;13.50;;;8.60;;
37781;SDS011;23621;50.878;4.584;2023-06-19T10:17:34;11.45;;;8.27;;
37781;SDS011;23621;50.878;4.584;2023-06-19T10:20:23;12.75;;;8.85;;
37781;SDS011;23621;50.878;4.584;2023-06-19T10:23:21;9.05;;;8.13;;
37781;SDS011;23621;50.878;4.584;2023-06-19T10:26:15;9.52;;;8.50;;
37781;SDS011;23621;50.878;4.584;2023-06-19T10:29:12;9.48;;;8.57;;
37781;SDS011;23621;50.878;4.584;2023-06-19T10:32:04;9.82;;;8.82;;
37781;SDS011;23621;50.878;4.584;2023-06-19T10:34:52;9.93;;;8.38;;
37781;SDS011;23621;50.878;4.584;2023-06-19T10:37:39;9.27;;;7.95;;
37781;SDS011;23621;50.878;4.584;2023-06-19T10:40:26;10.77;;;7.57;;
37781;SDS011;23621;50.878;4.584;2023-06-19T10:43:24;11.52;;;7.85;;
37781;SDS011;23621;50.878;4.584;2023-06-19T10:46:14;9.85;;;8.85;;
37781;SDS011;23621;50.878;4.584;2023-06-19T10:49:02;11.82;;;9.10;;
37781;SDS011;23621;50.878;4.584;2023-06-19T10:51:51;11.23;;;9.60;;
37781;SDS011;23621;50.878;4.584;2023-06-19T10:54:41;10.10;;;8.73;;
37781;SDS011;23621;50.878;4.584;2023-06-19T10:57:29;9.82;;;8.82;;
37781;SDS011;23621;50.878;4.584;2023-06-19T11:00:26;11.45;;;9.45;;
37781;SDS011;23621;50.878;4.584;2023-06-19T11:03:15;12.10;;;10.25;;
37781;SDS011;23621;50.878;4.584;2023-06-19T11:06:04;11.20;;;9.68;;
37781;SDS011;23621;50.878;4.584;2023-06-19T11:08:51;11.40;;;9.75;;
37781;SDS011;23621;50.878;4.584;2023-06-19T11:11:46;11.75;;;9.77;;
37781;SDS011;23621;50.878;4.584;2023-06-19T11:14:34;12.27;;;9.10;;
37781;SDS011;23621;50.878;4.584;2023-06-19T11:17:26;10.43;;;8.48;;
37781;SDS011;23621;50.878;4.584;2023-06-19T11:20:14;9.05;;;8.15;;
37781;SDS011;23621;50.878;4.584;2023-06-19T11:23:01;11.73;;;8.65;;
37781;SDS011;23621;50.878;4.584;2023-06-19T11:25:49;10.48;;;8.48;;
37781;SDS011;23621;50.878;4.584;2023-06-19T11:28:36;11.57;;;8.23;;
37781;SDS011;23621;50.878;4.584;2023-06-19T11:31:26;9.40;;;8.27;;
37781;SDS011;23621;50.878;4.584;2023-06-19T11:34:14;9.27;;;8.15;;
37781;SDS011;23621;50.878;4.584;2023-06-19T11:37:16;8.23;;;7.20;;
37781;SDS011;23621;50.878;4.584;2023-06-19T11:40:08;8.75;;;7.85;;
37781;SDS011;23621;50.878;4.584;2023-06-19T11:42:58;9.40;;;7.57;;
37781;SDS011;23621;50.878;4.584;2023-06-19T11:45:49;10.55;;;8.48;;
37781;SDS011;23621;50.878;4.584;2023-06-19T11:48:38;9.70;;;8.25;;
37781;SDS011;23621;50.878;4.584;2023-06-19T11:51:25;8.27;;;7.47;;
37781;SDS011;23621;50.878;4.584;2023-06-19T11:54:13;9.00;;;7.13;;
37781;SDS011;23621;50.878;4.584;2023-06-19T11:57:08;9.40;;;7.63;;
37781;SDS011;23621;50.878;4.584;2023-06-19T11:59:59;8.57;;;7.10;;
37781;SDS011;23621;50.878;4.584;2023-06-19T12:02:46;10.23;;;6.97;;
37781;SDS011;23621;50.878;4.584;2023-06-19T12:05:34;11.57;;;7.43;;
37781;SDS011;23621;50.878;4.584;2023-06-19T12:08:21;8.20;;;6.82;;
37781;SDS011;23621;50.878;4.584;2023-06-19T12:11:09;7.72;;;6.72;;
37781;SDS011;23621;50.878;4.584;2023-06-19T12:13:56;7.63;;;6.07;;
37781;SDS011;23621;50.878;4.584;2023-06-19T12:16:47;10.00;;;6.28;;
37781;SDS011;23621;50.878;4.584;2023-06-19T12:19:35;7.72;;;6.65;;
37781;SDS011;23621;50.878;4.584;2023-06-19T12:22:22;9.15;;;6.57;;
37781;SDS011;23621;50.878;4.584;2023-06-19T12:25:09;6.60;;;5.75;;
37781;SDS011;23621;50.878;4.584;2023-06-19T12:27:57;7.13;;;6.43;;
37781;SDS011;23621;50.878;4.584;2023-06-19T12:30:44;7.28;;;6.50;;
37781;SDS011;23621;50.878;4.584;2023-06-19T12:33:32;5.78;;;5.28;;
37781;SDS011;23621;50.878;4.584;2023-06-19T12:36:20;7.75;;;5.93;;
37781;SDS011;23621;50.878;4.584;2023-06-19T12:39:07;6.05;;;5.13;;
37781;SDS011;23621;50.878;4.584;2023-06-19T12:42:01;6.32;;;5.72;;
37781;SDS011;23621;50.878;4.584;2023-06-19T12:44:48;6.90;;;5.10;;
37781;SDS011;23621;50.878;4.584;2023-06-19T12:47:36;6.13;;;5.53;;
37781;SDS011;23621;50.878;4.584;2023-06-19T12:50:23;6.47;;;5.88;;
37781;SDS011;23621;50.878;4.584;2023-06-19T12:53:11;5.85;;;4.60;;
37781;SDS011;23621;50.878;4.584;2023-06-19T12:55:59;6.13;;;5.18;;
37781;SDS011;23621;50.878;4.584;2023-06-19T12:58:53;7.13;;;5.32;;
37781;SDS011;23621;50.878;4.584;2023-06-19T13:01:40;5.30;;;4.80;;
37781;SDS011;23621;50.878;4.584;2023-06-19T13:04:28;7.55;;;5.50;;
37781;SDS011;23621;50.878;4.584;2023-06-19T13:07:15;5.95;;;5.30;;
37781;SDS011;23621;50.878;4.584;2023-06-19T13:10:03;5.28;;;4.57;;
37781;SDS011;23621;50.878;4.584;2023-06-19T13:12:52;6.35;;;4.75;;
37781;SDS011;23621;50.878;4.584;2023-06-19T13:15:40;7.15;;;5.40;;
37781;SDS011;23621;50.878;4.584;2023-06-19T13:18:27;7.68;;;6.93;;
37781;SDS011;23621;50.878;4.584;2023-06-19T13:21:14;5.78;;;5.28;;
37781;SDS011;23621;50.878;4.584;2023-06-19T13:24:02;7.10;;;5.10;;
37781;SDS011;23621;50.878;4.584;2023-06-19T13:26:49;6.20;;;5.60;;
37781;SDS011;23621;50.878;4.584;2023-06-19T13:29:36;6.10;;;5.50;;
37781;SDS011;23621;50.878;4.584;2023-06-19T13:32:26;8.73;;;5.50;;
37781;SDS011;23621;50.878;4.584;2023-06-19T13:35:13;4.93;;;4.43;;
37781;SDS011;23621;50.878;4.584;2023-06-19T13:38:01;5.68;;;4.45;;
37781;SDS011;23621;50.878;4.584;2023-06-19T13:40:48;8.02;;;5.20;;
37781;SDS011;23621;50.878;4.584;2023-06-19T13:43:35;15.52;;;5.63;;
37781;SDS011;23621;50.878;4.584;2023-06-19T13:46:22;8.02;;;4.80;;
37781;SDS011;23621;50.878;4.584;2023-06-19T13:49:10;6.30;;;4.70;;
37781;SDS011;23621;50.878;4.584;2023-06-19T13:51:57;5.13;;;4.63;;
37781;SDS011;23621;50.878;4.584;2023-06-19T13:54:44;5.47;;;4.97;;
37781;SDS011;23621;50.878;4.584;2023-06-19T13:57:32;5.07;;;4.55;;
37781;SDS011;23621;50.878;4.584;2023-06-19T14:00:19;6.70;;;4.90;;
37781;SDS011;23621;50.878;4.584;2023-06-19T14:03:06;6.43;;;5.35;;
37781;SDS011;23621;50.878;4.584;2023-06-19T14:05:54;5.22;;;4.72;;
37781;SDS011;23621;50.878;4.584;2023-06-19T14:08:41;6.45;;;5.28;;
37781;SDS011;23621;50.878;4.584;2023-06-19T14:11:29;6.47;;;5.05;;
37781;SDS011;23621;50.878;4.584;2023-06-19T14:14:16;8.73;;;5.50;;
37781;SDS011;23621;50.878;4.584;2023-06-19T14:17:03;6.03;;;5.47;;
37781;SDS011;23621;50.878;4.584;2023-06-19T14:19:51;7.90;;;5.22;;
37781;SDS011;23621;50.878;4.584;2023-06-19T14:22:38;6.18;;;5.43;;
37781;SDS011;23621;50.878;4.584;2023-06-19T14:25:25;6.45;;;4.85;;
37781;SDS011;23621;50.878;4.584;2023-06-19T14:28:13;6.22;;;5.10;;
37781;SDS011;23621;50.878;4.584;2023-06-19T14:31:01;7.65;;;4.90;;
37781;SDS011;23621;50.878;4.584;2023-06-19T14:33:48;7.00;;;4.18;;
37781;SDS011;23621;50.878;4.584;2023-06-19T14:36:37;6.60;;;4.63;;
37781;SDS011;23621;50.878;4.584;2023-06-19T14:39:25;5.10;;;4.60;;
37781;SDS011;23621;50.878;4.584;2023-06-19T14:42:12;4.82;;;4.43;;
37781;SDS011;23621;50.878;4.584;2023-06-19T14:44:59;5.35;;;4.40;;
37781;SDS011;23621;50.878;4.584;2023-06-19T14:47:46;4.82;;;4.20;;
37781;SDS011;23621;50.878;4.584;2023-06-19T14:50:34;5.45;;;4.43;;
37781;SDS011;23621;50.878;4.584;2023-06-19T14:53:22;6.93;;;4.35;;
37781;SDS011;23621;50.878;4.584;2023-06-19T14:56:09;5.40;;;4.90;;
37781;SDS011;23621;50.878;4.584;2023-06-19T14:58:56;5.03;;;4.53;;
37781;SDS011;23621;50.878;4.584;2023-06-19T15:01:44;6.35;;;4.57;;
37781;SDS011;23621;50.878;4.584;2023-06-19T15:04:31;7.53;;;4.53;;
37781;SDS011;23621;50.878;4.584;2023-06-19T15:07:18;4.97;;;4.32;;
37781;SDS011;23621;50.878;4.584;2023-06-19T15:10:05;5.07;;;4.50;;
37781;SDS011;23621;50.878;4.584;2023-06-19T15:12:53;4.90;;;4.50;;
37781;SDS011;23621;50.878;4.584;2023-06-19T15:15:41;4.13;;;3.80;;
37781;SDS011;23621;50.878;4.584;2023-06-19T15:18:29;6.65;;;4.35;;
37781;SDS011;23621;50.878;4.584;2023-06-19T15:21:16;5.43;;;4.20;;
37781;SDS011;23621;50.878;4.584;2023-06-19T15:24:04;5.03;;;4.28;;
37781;SDS011;23621;50.878;4.584;2023-06-19T15:26:51;4.10;;;3.80;;
37781;SDS011;23621;50.878;4.584;2023-06-19T15:29:38;5.05;;;4.10;;
37781;SDS011;23621;50.878;4.584;2023-06-19T15:32:25;5.13;;;4.63;;
37781;SDS011;23621;50.878;4.584;2023-06-19T15:35:13;4.57;;;4.18;;
37781;SDS011;23621;50.878;4.584;2023-06-19T15:38:00;6.30;;;4.70;;
37781;SDS011;23621;50.878;4.584;2023-06-19T15:40:47;4.60;;;4.20;;
37781;SDS011;23621;50.878;4.584;2023-06-19T15:43:34;4.40;;;4.00;;
37781;SDS011;23621;50.878;4.584;2023-06-19T15:46:22;4.72;;;3.70;;
37781;SDS011;23621;50.878;4.584;2023-06-19T15:49:12;4.10;;;3.70;;
37781;SDS011;23621;50.878;4.584;2023-06-19T15:52:02;4.10;;;3.80;;
37781;SDS011;23621;50.878;4.584;2023-06-19T15:54:50;5.90;;;3.83;;
37781;SDS011;23621;50.878;4.584;2023-06-19T15:57:37;5.68;;;4.07;;
37781;SDS011;23621;50.878;4.584;2023-06-19T16:00:25;5.63;;;4.00;;
37781;SDS011;23621;50.878;4.584;2023-06-19T16:03:13;5.35;;;3.72;;
37781;SDS011;23621;50.878;4.584;2023-06-19T16:06:01;4.15;;;3.83;;
37781;SDS011;23621;50.878;4.584;2023-06-19T16:08:53;4.70;;;4.30;;
37781;SDS011;23621;50.878;4.584;2023-06-19T16:11:43;4.22;;;3.88;;
37781;SDS011;23621;50.878;4.584;2023-06-19T16:14:31;4.47;;;4.07;;
37781;SDS011;23621;50.878;4.584;2023-06-19T16:17:19;4.13;;;3.80;;
37781;SDS011;23621;50.878;4.584;2023-06-19T16:20:07;4.57;;;3.72;;
37781;SDS011;23621;50.878;4.584;2023-06-19T16:22:56;4.32;;;3.88;;
37781;SDS011;23621;50.878;4.584;2023-06-19T16:25:43;4.18;;;3.88;;
37781;SDS011;23621;50.878;4.584;2023-06-19T16:28:30;4.63;;;4.22;;
37781;SDS011;23621;50.878;4.584;2023-06-19T16:31:18;4.65;;;4.22;;
37781;SDS011;23621;50.878;4.584;2023-06-19T16:34:05;5.00;;;4.50;;
37781;SDS011;23621;50.878;4.584;2023-06-19T16:36:53;4.50;;;4.10;;
37781;SDS011;23621;50.878;4.584;2023-06-19T16:39:40;3.67;;;3.38;;
37781;SDS011;23621;50.878;4.584;2023-06-19T16:42:27;4.43;;;4.05;;
37781;SDS011;23621;50.878;4.584;2023-06-19T16:45:14;4.40;;;4.00;;
37781;SDS011;23621;50.878;4.584;2023-06-19T16:48:02;4.85;;;4.22;;
37781;SDS011;23621;50.878;4.584;2023-06-19T16:50:49;4.20;;;3.80;;
37781;SDS011;23621;50.878;4.584;2023-06-19T16:53:36;4.63;;;4.13;;